Flight Track Log - Related Links

Times and Time Zones

All times are in EDT time to prevent confusion due to time zone crossing. See the THY2854 flight status page for this flight to view local times or setup timezone preferences in your user account.

Time Position Orientation Groundspeed Altitude Reporting Facility
EDT Latitude Longitude Course Direction KTS MPH feet Rate Location/Type
Sat 04:41:00 PM 40.9795 29.4169 89° East  Level Estimated
Sat 04:42:00 PM 40.9797 29.5658 90° East  Level Estimated
Sat 04:43:00 PM 40.9796 29.7148 90° East  Level Estimated
Sat 04:44:00 PM 40.9794 29.8637 90° East  Level Estimated
Sat 04:45:00 PM 40.9790 30.0127 90° East  Level Estimated
Sat 04:46:00 PM 40.9784 30.1616 90° East  Level Estimated
Sat 04:47:00 PM 40.9776 30.3106 90° East  Level Estimated
Sat 04:48:00 PM 40.9767 30.4595 90° East  Level Estimated
Sat 04:49:00 PM 40.9755 30.6084 91° East  Level Estimated
Sat 04:50:00 PM 40.9741 30.7574 91° East  Level Estimated
Sat 04:51:00 PM 40.9726 30.9063 91° East  Level Estimated
Sat 04:52:00 PM 40.9708 31.0552 91° East  Level Estimated
Sat 04:53:00 PM 40.9689 31.2041 91° East  Level Estimated
Sat 04:54:00 PM 40.9668 31.3530 91° East  Level Estimated
Sat 04:55:00 PM 40.9644 31.5019 91° East  Level Estimated
Sat 04:56:00 PM 40.9619 31.6508 91° East  Level Estimated
Sat 04:57:00 PM 40.9592 31.7997 91° East  Level Estimated
Sat 04:58:00 PM 40.9563 31.9485 91° East  Level Estimated
Sat 04:59:00 PM 40.9532 32.0973 92° East  Level Estimated
Sat 05:00:00 PM 40.9500 32.2462 92° East  Level Estimated
Sat 05:01:00 PM 40.9465 32.3950 92° East  Level Estimated
Sat 05:02:00 PM 40.9428 32.5438 92° East  Level Estimated
Sat 05:03:00 PM 40.9390 32.6925 92° East  Level Estimated
Sat 05:04:00 PM 40.9349 32.8413 92° East  Level Estimated
Sat 05:05:00 PM 40.9307 32.9900 92° East  Level Estimated
Sat 05:06:00 PM 40.9263 33.1388 92° East  Level Estimated
Sat 05:07:00 PM 40.9217 33.2875 92° East  Level Estimated
Sat 05:08:00 PM 40.9169 33.4361 92° East  Level Estimated
Sat 05:09:00 PM 40.9118 33.5848 92° East  Level Estimated
Sat 05:10:00 PM 40.9067 33.7334 93° East  Level Estimated
Sat 05:11:00 PM 40.9013 33.8820 93° East  Level Estimated
Sat 05:12:00 PM 40.8957 34.0306 93° East  Level Estimated
Sat 05:13:00 PM 40.8899 34.1792 93° East  Level Estimated
Sat 05:14:00 PM 40.8840 34.3277 93° East  Level Estimated
Sat 05:15:00 PM 40.8779 34.4762 93° East  Level Estimated
Sat 05:16:00 PM 40.8715 34.6247 93° East  Level Estimated
Sat 05:17:00 PM 40.8650 34.7732 93° East  Level Estimated
Sat 05:18:00 PM 40.8583 34.9216 93° East  Level Estimated
Sat 05:19:00 PM 40.8514 35.0700 93° East  Level Estimated
Sat 05:20:00 PM 40.8443 35.2183 94° East  Level Estimated
Sat 05:21:00 PM 40.8370 35.3666 94° East  Level Estimated
Sat 05:22:00 PM 40.8295 35.5149 94° East  Level Estimated
Sat 05:23:00 PM 40.8292 35.5219 94° East  Level Estimated
Sat 05:24:00 PM 40.8292 35.5219 135° Southeast  Level Estimated
Sat 05:25:00 PM 40.8292 35.5219 135° Southeast  Level Estimated
Sat 05:26:00 PM 40.8292 35.5219 135° Southeast  Level Estimated
Sat 05:27:00 PM 40.8292 35.5219 135° Southeast  Level Estimated
Sat 05:28:00 PM 40.8292 35.5219 135° Southeast  Level Estimated
Sat 05:29:00 PM 40.8292 35.5219 135° Southeast  Level Estimated
Sat 05:30:00 PM 40.8292 35.5219 135° Southeast  Level Estimated
Sat 05:31:00 PM 40.8292 35.5219 135° Southeast  Level Estimated
Sat 05:32:00 PM 40.8292 35.5219 135° Southeast  Level Estimated
Sat 05:33:00 PM 40.8292 35.5219 135° Southeast  Level Estimated
Sat 05:34:00 PM 40.8292 35.5219 135° Southeast  Level Estimated
Sat 05:35:00 PM 40.8292 35.5219 135° Southeast  Level Estimated
Sat 05:36:00 PM 40.8292 35.5219 135° Southeast  Level Estimated
Sat 05:37:00 PM 40.8292 35.5219 135° Southeast  Level Estimated
Sat 05:38:00 PM 40.8292 35.5219 135° Southeast  Level Estimated

Login

Don't have an account? Register now (free) for customized features, flight alerts, and more!